Flight Track Log - Related Links

Times and Time Zones

All times are in EDT time to prevent confusion due to time zone crossing. See the SWA1301 flight status page for this flight to view local times or setup timezone preferences in your user account.

Time Position Orientation Groundspeed Altitude Reporting Facility
EDT Latitude Longitude Course Direction KTS MPH feet Rate Location/Type
Sat 07:46:19 PM 33.4333 -111.9833 90° East 215 247 1,900  Level Phoenix TRACON
Sat 07:47:25 PM 33.4333 -111.9000 90° East 223 257 5,000 2,455 Climbing Phoenix TRACON
Sat 07:48:09 PM 33.4308 -111.8450 93° East 221 254 6,400 2,571 Climbing Albuquerque Center
Sat 07:49:10 PM 33.4017 -111.7600 112° Southeast 268 308 9,500 2,803 Climbing Albuquerque Center
Sat 07:50:11 PM 33.3706 -111.6739 113° Southeast 278 320 12,100 2,607 Climbing Albuquerque Center
Sat 07:51:12 PM 33.3350 -111.5828 115° Southeast 295 339 14,800 1,869 Climbing Albuquerque Center
Sat 07:52:13 PM 33.3003 -111.4872 113° Southeast 309 356 15,900 1,463 Climbing Albuquerque Center
Sat 07:53:15 PM 33.2614 -111.3725 112° Southeast 362 417 17,800 2,098 Climbing Albuquerque Center
Sat 07:54:16 PM 33.2272 -111.2283 106° East 377 434 20,200 2,213 Climbing Albuquerque Center
Sat 07:55:17 PM 33.1953 -111.1061 107° East 384 442 22,300 1,869 Climbing Albuquerque Center
Sat 07:56:18 PM 33.1608 -110.9881 109° East 380 437 24,000 1,475 Climbing Albuquerque Center
Sat 07:57:19 PM 33.1306 -110.8631 106° East 388 447 25,300 1,268 Climbing Albuquerque Center
Sat 07:58:21 PM 33.0967 -110.7358 108° East 400 460 26,600 1,268 Climbing Albuquerque Center
Sat 07:59:22 PM 33.0628 -110.6056 107° East 407 468 27,900 1,279 Climbing Albuquerque Center
Sat 08:00:23 PM 33.0272 -110.4764 108° East 411 473 29,200 1,328 Climbing Albuquerque Center
Sat 08:01:24 PM 32.9922 -110.3472 108° East 413 475 30,600 1,366 Climbing Albuquerque Center
Sat 08:02:26 PM 32.9597 -110.2214 107° East 407 468 32,000 1,268 Climbing Albuquerque Center
Sat 08:03:27 PM 32.9181 -110.0728 108° East 400 460 33,200 984 Climbing Albuquerque Center
Sat 08:04:28 PM 32.8817 -109.9475 109° East 404 465 34,000 927 Climbing Albuquerque Center
Sat 08:05:30 PM 32.8483 -109.8244 108° East 399 459 35,100 976 Climbing Albuquerque Center
Sat 08:06:31 PM 32.8139 -109.7019 108° East 396 456 36,000 787 Climbing Albuquerque Center
Sat 08:07:32 PM 32.7808 -109.5808 108° East 392 451 36,700 439 Climbing Albuquerque Center
Sat 08:08:34 PM 32.7469 -109.4586 108° East 394 453 36,900 146 Climbing Albuquerque Center
Sat 08:09:35 PM 32.7058 -109.3103 108° East 400 460 37,000 49 Climbing Albuquerque Center
Sat 08:10:37 PM 32.6711 -109.1869 108° East 402 463 37,000  Level Albuquerque Center
Sat 08:11:38 PM 32.6358 -109.0642 109° East 401 461 37,000  Level Albuquerque Center
Sat 08:12:39 PM 32.6011 -108.9406 108° East 402 463 37,000  Level Albuquerque Center
Sat 08:13:41 PM 32.5661 -108.8158 108° East 403 464 37,000  Level Albuquerque Center
Sat 08:14:42 PM 32.5242 -108.6650 108° East 406 467 37,000  Level Albuquerque Center
Sat 08:15:44 PM 32.4881 -108.5394 109° East 408 470 37,000  Level Albuquerque Center
Sat 08:16:45 PM 32.4511 -108.4119 109° East 411 473 37,000  Level Albuquerque Center
Sat 08:17:46 PM 32.4114 -108.2750 109° East 415 478 37,000  Level Albuquerque Center
Sat 08:18:48 PM 32.3733 -108.1458 109° East 417 480 37,000 -49 Level Albuquerque Center
Sat 08:19:49 PM 32.3353 -108.0136 109° East 424 488 36,900  Descending Albuquerque Center
Sat 08:20:50 PM 32.2975 -107.8817 109° East 426 490 37,000 49 Climbing Albuquerque Center
Sat 08:21:52 PM 32.2583 -107.7492 109° East 429 494 37,000  Level Albuquerque Center
Sat 08:22:53 PM 32.2186 -107.6150 109° East 433 498 37,000  Level Albuquerque Center
Sat 08:23:54 PM 32.1722 -107.4547 109° East 435 501 37,000  Level Albuquerque Center
Sat 08:24:56 PM 32.1322 -107.3206 109° East 438 504 37,000  Level Albuquerque Center
Sat 08:25:57 PM 32.0922 -107.1864 109° East 438 504 37,000  Level Albuquerque Center
Sat 08:26:58 PM 32.0536 -107.0531 109° East 436 502 37,000  Level Albuquerque Center
Sat 08:28:00 PM 32.0128 -106.9189 110° East 437 503 37,000  Level Albuquerque Center
Sat 08:29:01 PM 31.9722 -106.7858 110° East 435 501 37,000  Level Albuquerque Center
Sat 08:30:02 PM 31.9294 -106.6517 111° Southeast 439 505 37,000 -49 Level Albuquerque Center
Sat 08:31:04 PM 31.8844 -106.5039 110° East 441 507 36,900  Descending Albuquerque Center
Sat 08:32:05 PM 31.8450 -106.3681 109° East 441 507 37,000 49 Climbing Albuquerque Center
Sat 08:33:06 PM 31.8114 -106.2292 106° East 450 518 37,000  Level Albuquerque Center
Sat 08:34:08 PM 31.7925 -106.0881 99° East 440 506 37,000  Level Albuquerque Center
Sat 08:35:09 PM 31.7744 -105.9447 98° East 444 511 37,000  Level Albuquerque Center
Sat 08:36:10 PM 31.7533 -105.7703 98° East 449 517 37,000  Level Albuquerque Center
Sat 08:37:12 PM 31.7356 -105.6247 98° East 450 518 37,000  Level Albuquerque Center
Sat 08:38:13 PM 31.7178 -105.4781 98° East 453 521 37,000  Level Albuquerque Center
Sat 08:39:14 PM 31.6994 -105.3317 98° East 452 520 37,000  Level Albuquerque Center
Sat 08:40:15 PM 31.6825 -105.1836 98° East 454 522 37,000  Level Albuquerque Center
Sat 08:41:17 PM 31.6633 -105.0375 99° East 454 522 37,000  Level Albuquerque Center
Sat 08:42:18 PM 31.6453 -104.8903 98° East 454 522 37,000  Level Albuquerque Center
Sat 08:43:19 PM 31.6258 -104.7417 99° East 458 527 37,000  Level Albuquerque Center
Sat 08:44:20 PM 31.6075 -104.5936 98° East 458 527 37,000  Level Albuquerque Center
Sat 08:45:22 PM 31.5886 -104.4450 98° East 459 528 37,000  Level Albuquerque Center
Sat 08:46:23 PM 31.5689 -104.2967 99° East 459 528 37,000  Level Albuquerque Center
Sat 08:47:24 PM 31.5489 -104.1481 99° East 460 529 37,000  Level Albuquerque Center
Sat 08:48:25 PM 31.5253 -103.9700 99° East 461 531 37,000  Level Albuquerque Center
Sat 08:49:26 PM 31.5044 -103.8189 99° East 467 537 37,000  Level Albuquerque Center
Sat 08:50:28 PM 31.4839 -103.6747 99° East 469 540 37,000  Level Albuquerque Center
Sat 08:51:29 PM 31.4628 -103.5228 99° East 471 542 37,000  Level Albuquerque Center
Sat 08:52:30 PM 31.4447 -103.3706 98° East 474 545 37,000  Level Albuquerque Center
Sat 08:53:31 PM 31.4258 -103.2147 98° East 480 552 37,000  Level Albuquerque Center
Sat 08:54:32 PM 31.4053 -103.0592 99° East 484 557 37,000  Level Albuquerque Center
Sat 08:55:34 PM 31.3803 -102.8731 99° East 482 555 37,000  Level Albuquerque Center
Sat 08:56:35 PM 31.3619 -102.7181 98° East 482 555 37,000  Level Albuquerque Center
Sat 08:57:36 PM 31.3417 -102.5625 99° East 483 556 37,000  Level Albuquerque Center
Sat 08:58:37 PM 31.3208 -102.4033 99° East 492 566 37,000  Level Albuquerque Center
Sat 08:59:38 PM 31.3003 -102.2478 99° East 489 563 37,000  Level Albuquerque Center
Sat 09:00:39 PM 31.2792 -102.0931 99° East 486 559 37,000  Level Albuquerque Center
Sat 09:01:40 PM 31.2594 -101.9372 98° East 486 559 37,000  Level Albuquerque Center
Sat 09:02:42 PM 31.2358 -101.7650 99° East 487 560 37,000  Level Albuquerque Center
Sat 09:03:43 PM 31.2139 -101.6067 99° East 492 566 37,000  Level Albuquerque Center
Sat 09:04:49 PM 31.1914 -101.4483 99° East 494 568 37,000  Level Houston Center
Sat 09:05:50 PM 31.1703 -101.2931 99° East 497 572 37,000  Level Houston Center
Sat 09:06:51 PM 31.1447 -101.1000 99° East 501 577 37,000  Level Houston Center
Sat 09:07:52 PM 31.1228 -100.9392 99° East 504 580 37,000  Level Houston Center
Sat 09:08:53 PM 31.0992 -100.7781 100° East 505 581 37,000  Level Houston Center
Sat 09:09:54 PM 31.0753 -100.6175 100° East 504 580 37,000  Level Houston Center
Sat 09:10:55 PM 31.0519 -100.4569 100° East 501 577 37,000  Level Houston Center
Sat 09:11:56 PM 31.0289 -100.2961 99° East 502 578 37,000  Level Houston Center
Sat 09:12:57 PM 31.0053 -100.1342 100° East 505 581 37,000  Level Houston Center
Sat 09:13:57 PM 30.9853 -99.9700 98° East 508 585 37,000  Level Houston Center
Sat 09:14:58 PM 30.9703 -99.8033 96° East 514 592 37,000  Level Houston Center
Sat 09:15:59 PM 30.9519 -99.6372 97° East 514 592 37,000  Level Houston Center
Sat 09:17:00 PM 30.9333 -99.4689 97° East 522 601 37,000  Level Houston Center
Sat 09:18:01 PM 30.9119 -99.2967 98° East 532 612 37,000  Level Houston Center
Sat 09:19:01 PM 30.8914 -99.1225 98° East 531 611 37,000  Level Houston Center
Sat 09:20:02 PM 30.8719 -98.9497 97° East 534 615 37,000  Level Houston Center
Sat 09:21:03 PM 30.8517 -98.7767 98° East 536 617 37,000  Level Houston Center
Sat 09:22:04 PM 30.8308 -98.6036 98° East 536 617 37,000  Level Houston Center
Sat 09:23:05 PM 30.8094 -98.4303 98° East 537 618 37,000  Level Houston Center
Sat 09:24:05 PM 30.7892 -98.2569 98° East 538 619 37,000  Level Houston Center
Sat 09:25:06 PM 30.7672 -98.0842 98° East 536 617 37,000  Level Houston Center
Sat 09:26:07 PM 30.7453 -97.9125 98° East 534 615 37,000 -49 Level Houston Center
Sat 09:27:08 PM 30.7236 -97.7408 98° East 534 615 36,900 -590 Descending Houston Center
Sat 09:28:09 PM 30.7019 -97.5694 98° East 535 616 35,800 -984 Descending Houston Center
Sat 09:29:10 PM 30.6797 -97.3994 99° East 534 615 34,900 -1,835 Descending Houston Center
Sat 09:30:10 PM 30.6336 -97.2136 106° East 512 589 32,100 -2,975 Descending Houston Center
Sat 09:31:11 PM 30.5750 -97.0719 116° Southeast 489 563 28,900 -3,934 Descending Houston Center
Sat 09:32:12 PM 30.5136 -96.9286 116° Southeast 494 568 24,100 -3,246 Descending Houston Center
Sat 09:33:13 PM 30.4556 -96.7894 116° Southeast 473 544 22,300 -2,083 Descending Houston Center
Sat 09:34:13 PM 30.4019 -96.6622 116° Southeast 441 507 19,900 -2,281 Descending Houston Center
Sat 09:35:14 PM 30.3500 -96.5425 117° Southeast 419 482 17,700 -2,208 Descending Houston Center
Sat 09:35:59 PM 30.3131 -96.4597 117° Southeast 396 456 16,000 -2,262 Descending Houston Center
Sat 09:36:15 PM 30.3008 -96.4283 114° Southeast 397 457 15,400 -2,301 Descending Houston Center
Sat 09:37:12 PM 30.2550 -96.3186 116° Southeast 379 436 13,200 -2,164 Descending Houston Center
Sat 09:38:17 PM 30.2072 -96.2133 118° Southeast 367 422 11,000 -1,008 Descending Houston Center
Sat 09:39:17 PM 30.1325 -96.1397 140° Southeast 355 409 11,100  Climbing Houston Center
Sat 09:40:18 PM 30.0600 -96.0639 138° Southeast 372 428 11,000 -203 Descending Houston Center
Sat 09:41:15 PM 29.9881 -95.9675 131° Southeast 371 427 10,700 -508 Descending Houston Center
Sat 09:42:16 PM 29.9211 -95.8739 130° Southeast 360 414 10,000 -738 Descending Houston Center
Sat 09:43:17 PM 29.8619 -95.7989 132° Southeast 305 351 9,200 -1,190 Descending Houston Center
Sat 09:44:17 PM 29.8069 -95.7233 130° Southeast 304 350 7,600 -1,461 Descending Houston Center
Sat 09:45:12 PM 29.7594 -95.6592 130° Southeast 288 331 6,400 -1,000 Descending Houston Center
Sat 09:46:23 PM 29.7061 -95.5881 131° Southeast 287 330 5,500 -1,182 Descending Houston Center
Sat 09:47:24 PM 29.6567 -95.5231 131° Southeast 276 318 3,800 -1,587 Descending Houston Center
Sat 09:48:24 PM 29.6233 -95.4453 116° Southeast 276 318 2,300 -1,140 Descending Houston Center
Sat 09:49:25 PM 29.5911 -95.3556 112° Southeast 260 299 1,500 -738 Descending Houston Center
Sat 09:50:26 PM 29.6114 -95.3164 59° Northeast 171 197 800 -694 Descending Houston Center
Sat 09:51:26 PM 29.6369 -95.2872 45° Northeast 139 160 100 -700 Descending Houston Center
Sat 09:53:00 PM 29.6333 -95.2667 115° Southeast  Level FlightAware Approximate

Login

Don't have an account? Register now (free) for customized features, flight alerts, and more!